createdAt,value
2023-04-03T00:00:25.524Z,15.46
2023-04-03T00:03:29.377Z,15.23
2023-04-03T00:06:33.114Z,15.17
2023-04-03T00:09:38.512Z,15.15
2023-04-03T00:12:42.009Z,15.47
2023-04-03T00:15:45.753Z,15.32
2023-04-03T00:18:49.464Z,15.10
2023-04-03T00:21:54.692Z,15.37
2023-04-03T00:24:59.944Z,15.44
2023-04-03T00:28:04.352Z,15.24
2023-04-03T00:31:07.913Z,15.42
2023-04-03T00:34:12.787Z,15.17
2023-04-03T00:37:16.573Z,15.31
2023-04-03T00:40:24.262Z,15.36
2023-04-03T00:43:28.766Z,15.09
2023-04-03T00:46:32.428Z,15.27
2023-04-03T00:49:36.494Z,15.11
2023-04-03T00:52:41.553Z,15.23
2023-04-03T00:55:48.874Z,15.24
2023-04-03T00:58:56.552Z,15.01
2023-04-03T01:02:01.623Z,15.20
2023-04-03T01:05:06.334Z,15.01
2023-04-03T01:08:10.885Z,15.17
2023-04-03T01:11:16.262Z,15.10
2023-04-03T01:14:21.024Z,15.10
2023-04-03T01:17:31.768Z,14.92
2023-04-03T01:21:12.215Z,15.07
2023-04-03T01:24:34.813Z,15.11
2023-04-03T01:27:42.054Z,15.05
2023-04-03T01:30:50.137Z,15.07
2023-04-03T01:33:56.654Z,15.08
2023-04-03T01:37:01.086Z,15.16
2023-04-03T01:40:05.323Z,15.26
2023-04-03T01:43:09.443Z,15.21
2023-04-03T01:46:13.184Z,15.17
2023-04-03T01:49:18.624Z,14.87
2023-04-03T01:52:22.544Z,14.90
2023-04-03T01:55:28.333Z,15.06
2023-04-03T01:58:31.955Z,15.14
2023-04-03T02:01:35.692Z,15.06
2023-04-03T02:04:41.038Z,15.10
2023-04-03T02:07:44.661Z,15.06
2023-04-03T02:10:50.066Z,14.88
2023-04-03T02:13:54.312Z,14.89
2023-04-03T02:16:58.068Z,14.88
2023-04-03T02:20:04.317Z,14.78
2023-04-03T02:23:08.187Z,14.50
2023-04-03T02:26:14.335Z,14.63
2023-04-03T02:29:18.061Z,14.47
2023-04-03T02:32:21.745Z,14.50
2023-04-03T02:35:27.244Z,14.45
2023-04-03T02:38:34.016Z,14.59
2023-04-03T02:41:37.735Z,14.74
2023-04-03T02:44:47.101Z,14.33
2023-04-03T02:47:50.848Z,14.31
2023-04-03T02:50:56.402Z,14.43
2023-04-03T02:53:59.996Z,14.35
2023-04-03T02:57:10.084Z,13.70
2023-04-03T03:00:15.654Z,13.75
2023-04-03T03:03:19.332Z,13.61
2023-04-03T03:06:24.439Z,13.36
2023-04-03T03:09:28.207Z,13.77
2023-04-03T03:12:32.687Z,13.99
2023-04-03T03:15:37.311Z,14.09
2023-04-03T03:18:40.997Z,14.02
2023-04-03T03:21:46.333Z,14.15
2023-04-03T03:24:49.874Z,14.16
2023-04-03T03:27:53.534Z,14.20
2023-04-03T03:30:58.000Z,14.17
2023-04-03T03:34:01.902Z,14.24
2023-04-03T03:37:07.061Z,14.23
2023-04-03T03:40:14.218Z,13.86
2023-04-03T03:43:18.383Z,13.92
2023-04-03T03:46:23.790Z,13.71
2023-04-03T03:49:27.629Z,13.89
2023-04-03T03:52:32.859Z,14.04
2023-04-03T03:55:36.916Z,13.82
2023-04-03T03:58:41.076Z,13.93
2023-04-03T04:01:45.697Z,13.78
2023-04-03T04:04:51.284Z,13.95
2023-04-03T04:07:56.636Z,13.05
2023-04-03T04:11:01.735Z,13.27
2023-04-03T04:14:06.325Z,13.27
2023-04-03T04:17:11.364Z,13.65
2023-04-03T04:20:15.156Z,13.39
2023-04-03T04:23:21.205Z,13.62
2023-04-03T04:26:26.646Z,13.91
2023-04-03T04:29:30.896Z,13.89
2023-04-03T04:32:34.964Z,13.93
2023-04-03T04:35:39.545Z,13.97
2023-04-03T04:38:45.001Z,14.17
2023-04-03T04:41:48.923Z,14.43
2023-04-03T04:44:52.785Z,14.45
2023-04-03T04:47:58.221Z,14.52
2023-04-03T04:51:03.161Z,14.16
2023-04-03T04:54:08.607Z,14.09
2023-04-03T04:57:12.785Z,14.04
2023-04-03T05:00:18.042Z,14.10
2023-04-03T05:03:22.420Z,13.97
2023-04-03T05:06:26.515Z,13.51
2023-04-03T05:09:33.354Z,13.57
2023-04-03T05:12:37.181Z,13.57
2023-04-03T05:15:42.427Z,12.85
2023-04-03T05:18:46.731Z,13.44
2023-04-03T05:21:56.059Z,13.34
2023-04-03T05:25:02.045Z,12.67
2023-04-03T05:28:05.795Z,13.30
2023-04-03T05:31:09.765Z,13.62
2023-04-03T05:34:14.205Z,13.34
2023-04-03T05:37:18.909Z,13.77
2023-04-03T05:40:24.764Z,13.89
2023-04-03T05:43:31.344Z,13.98
2023-04-03T05:46:35.551Z,13.99
2023-04-03T05:49:43.003Z,14.24
2023-04-03T05:52:52.410Z,14.39
2023-04-03T05:55:58.355Z,14.61
2023-04-03T05:59:03.242Z,14.61
2023-04-03T06:02:07.462Z,14.82
2023-04-03T06:05:14.482Z,14.68
2023-04-03T06:08:18.338Z,14.90
2023-04-03T06:11:24.021Z,14.71
2023-04-03T06:14:28.112Z,14.69
2023-04-03T06:17:32.368Z,14.80
2023-04-03T06:20:36.347Z,14.89
2023-04-03T06:23:41.881Z,14.74
2023-04-03T06:26:47.473Z,14.72
2023-04-03T06:29:51.163Z,15.02
2023-04-03T06:32:55.045Z,15.15
2023-04-03T06:36:00.535Z,14.91
2023-04-03T06:39:04.670Z,15.21
2023-04-03T06:42:09.954Z,15.43
2023-04-03T06:45:23.009Z,15.78
2023-04-03T06:48:26.813Z,15.97
2023-04-03T06:51:32.370Z,16.25
2023-04-03T06:54:36.142Z,16.09
2023-04-03T06:57:41.322Z,15.77
2023-04-03T07:00:45.075Z,14.80
2023-04-03T07:03:49.188Z,15.50
2023-04-03T07:06:53.702Z,15.61
2023-04-03T07:09:57.501Z,15.86
2023-04-03T07:13:03.047Z,16.09
2023-04-03T07:16:07.878Z,16.26
2023-04-03T07:19:11.753Z,16.35
2023-04-03T07:22:15.512Z,16.14
2023-04-03T07:25:19.369Z,16.07
2023-04-03T07:28:25.540Z,16.22
2023-04-03T07:31:29.649Z,16.24
2023-04-03T07:34:33.826Z,16.30
2023-04-03T07:37:37.765Z,16.35
2023-04-03T07:40:42.497Z,16.64
2023-04-03T07:43:48.181Z,16.71
2023-04-03T07:46:52.307Z,16.64
2023-04-03T07:49:56.005Z,16.83
2023-04-03T07:52:59.815Z,16.91
2023-04-03T07:56:04.011Z,17.07
2023-04-03T07:59:09.347Z,17.12
2023-04-03T08:02:13.720Z,17.11
2023-04-03T08:05:17.579Z,17.26
2023-04-03T08:08:23.410Z,16.99
2023-04-03T08:11:28.030Z,17.17
2023-04-03T08:14:35.945Z,17.25
2023-04-03T08:17:39.770Z,17.35
2023-04-03T08:20:43.753Z,17.32
2023-04-03T08:23:50.323Z,16.87
2023-04-03T08:26:54.242Z,16.92
2023-04-03T08:29:59.808Z,16.93
2023-04-03T08:33:03.950Z,17.23
2023-04-03T08:36:09.216Z,17.53
2023-04-03T08:39:13.493Z,17.21
2023-04-03T08:42:26.767Z,17.29
2023-04-03T08:45:44.587Z,17.16
2023-04-03T08:48:49.629Z,16.97
2023-04-03T08:51:55.144Z,16.89
2023-04-03T08:55:02.469Z,16.78
2023-04-03T08:58:08.950Z,16.78
2023-04-03T09:01:22.746Z,16.63
2023-04-03T09:04:30.539Z,16.48
2023-04-03T09:07:41.640Z,16.30
2023-04-03T09:10:46.227Z,16.35
2023-04-03T09:13:57.022Z,16.52
2023-04-03T09:17:06.166Z,16.54
2023-04-03T09:20:20.909Z,16.51
2023-04-03T09:23:30.747Z,16.40
2023-04-03T09:26:39.283Z,16.25
2023-04-03T09:29:46.256Z,16.16
2023-04-03T09:32:53.374Z,16.17
2023-04-03T09:35:57.336Z,15.97
2023-04-03T09:39:07.221Z,15.93
2023-04-03T09:42:21.659Z,16.21
2023-04-03T09:45:28.940Z,16.25
2023-04-03T09:48:34.209Z,16.11
2023-04-03T09:51:38.469Z,16.03
2023-04-03T09:54:42.410Z,15.99
2023-04-03T09:57:47.161Z,15.98
2023-04-03T10:00:57.050Z,15.75
2023-04-03T10:04:11.972Z,16.00
2023-04-03T10:07:37.749Z,15.77
2023-04-03T10:10:42.096Z,15.53
2023-04-03T10:14:00.832Z,15.34
2023-04-03T10:17:27.587Z,15.37
2023-04-03T10:20:39.559Z,15.31
2023-04-03T10:23:48.158Z,15.44
2023-04-03T10:26:59.640Z,15.17
2023-04-03T10:30:15.293Z,15.42
2023-04-03T10:33:42.615Z,15.67
2023-04-03T10:36:56.651Z,15.54
2023-04-03T10:40:05.363Z,15.77
2023-04-03T10:43:14.707Z,15.77
2023-04-03T10:46:24.703Z,15.78
2023-04-03T10:49:53.529Z,15.90
2023-04-03T10:53:12.904Z,15.54
2023-04-03T10:56:23.219Z,15.45
2023-04-03T10:59:32.943Z,15.40
2023-04-03T11:02:45.159Z,15.51
2023-04-03T11:05:52.741Z,15.49
2023-04-03T11:09:04.536Z,15.57
2023-04-03T11:12:15.189Z,15.40
2023-04-03T11:15:23.271Z,15.41
2023-04-03T11:18:35.315Z,15.27
2023-04-03T11:21:43.652Z,15.27
2023-04-03T11:25:00.108Z,15.34
2023-04-03T11:28:07.713Z,15.34
2023-04-03T11:31:27.590Z,15.37
2023-04-03T11:34:41.492Z,15.52
2023-04-03T11:37:48.862Z,15.72
2023-04-03T11:40:55.671Z,15.70
2023-04-03T11:44:02.153Z,15.76
2023-04-03T11:47:07.183Z,15.75
2023-04-03T11:50:45.435Z,15.84
2023-04-03T11:53:49.893Z,15.84
2023-04-03T11:56:55.392Z,15.74
2023-04-03T11:59:59.358Z,15.51
2023-04-03T12:03:03.455Z,15.42
2023-04-03T12:06:57.759Z,15.29
2023-04-03T12:10:03.818Z,15.24
2023-04-03T12:13:20.145Z,15.40
2023-04-03T12:16:26.190Z,15.44
2023-04-03T12:23:25.577Z,15.57
2023-04-03T12:26:42.098Z,15.47
2023-04-03T12:29:58.608Z,15.36
2023-04-03T12:33:27.782Z,15.42
2023-04-03T12:36:43.336Z,15.20
2023-04-03T12:40:05.579Z,15.31
2023-04-03T12:43:39.510Z,15.16
2023-04-03T12:46:48.682Z,14.82
2023-04-03T12:49:54.696Z,14.84
2023-04-03T12:53:04.803Z,14.71
2023-04-03T12:56:26.533Z,15.04
2023-04-03T12:59:30.442Z,14.88
2023-04-03T13:02:35.989Z,14.84
2023-04-03T13:05:40.967Z,15.02
2023-04-03T13:08:52.584Z,15.13
2023-04-03T13:12:03.333Z,15.01
2023-04-03T13:15:16.604Z,14.98
2023-04-03T13:18:28.837Z,14.35
2023-04-03T13:21:36.293Z,14.45
2023-04-03T13:24:41.701Z,14.74
2023-04-03T13:27:47.514Z,14.87
2023-04-03T13:31:03.060Z,14.67
2023-04-03T13:34:13.896Z,14.80
2023-04-03T13:37:25.941Z,14.69
2023-04-03T13:40:35.146Z,14.59
2023-04-03T13:43:47.002Z,14.62
2023-04-03T13:46:51.611Z,14.38
2023-04-03T13:50:04.394Z,14.47
2023-04-03T13:53:16.083Z,14.30
2023-04-03T13:56:26.649Z,14.43
2023-04-03T13:59:34.107Z,14.46
2023-04-03T14:02:42.194Z,14.52
2023-04-03T14:05:46.899Z,14.51
2023-04-03T14:08:51.252Z,14.37
2023-04-03T14:11:57.513Z,14.09
2023-04-03T14:15:04.241Z,14.25
2023-04-03T14:18:08.289Z,14.30
2023-04-03T14:21:14.748Z,14.15
2023-04-03T14:24:18.920Z,14.34
2023-04-03T14:27:24.499Z,14.32
2023-04-03T14:30:33.609Z,14.44
2023-04-03T14:33:37.981Z,14.19
2023-04-03T14:36:43.063Z,14.50
2023-04-03T14:39:47.749Z,14.32
2023-04-03T14:42:51.790Z,14.40
2023-04-03T14:45:57.115Z,14.24
2023-04-03T14:49:01.341Z,14.38
2023-04-03T14:52:05.579Z,14.35
2023-04-03T14:55:09.884Z,14.43
2023-04-03T14:58:17.541Z,14.63
2023-04-03T15:01:22.818Z,14.36
2023-04-03T15:04:27.268Z,14.20
2023-04-03T15:07:33.480Z,14.23
2023-04-03T15:10:37.492Z,14.49
2023-04-03T15:13:42.174Z,14.33
2023-04-03T15:16:47.598Z,14.28
2023-04-03T15:19:51.281Z,14.28
2023-04-03T15:22:57.405Z,14.17
2023-04-03T15:26:01.367Z,14.21
2023-04-03T15:29:06.097Z,14.14
2023-04-03T15:32:12.030Z,14.45
2023-04-03T15:35:15.993Z,14.55
2023-04-03T15:38:19.712Z,14.29
2023-04-03T15:41:23.443Z,14.23
2023-04-03T15:44:27.385Z,14.32
2023-04-03T15:47:32.833Z,14.31
2023-04-03T15:50:37.512Z,14.28
2023-04-03T15:53:41.551Z,14.00
2023-04-03T15:56:45.246Z,14.20
2023-04-03T15:59:49.020Z,14.32
2023-04-03T16:02:58.726Z,14.40
2023-04-03T16:06:03.828Z,14.22
2023-04-03T16:09:07.791Z,14.18
2023-04-03T16:12:11.762Z,14.12
2023-04-03T16:15:15.633Z,14.04
2023-04-03T16:18:21.046Z,14.09
2023-04-03T16:21:25.910Z,13.88
2023-04-03T16:24:29.721Z,14.20
2023-04-03T16:27:33.488Z,13.85
2023-04-03T16:30:37.305Z,13.76
2023-04-03T16:33:42.597Z,13.73
2023-04-03T16:36:46.465Z,13.69
2023-04-03T16:39:50.616Z,13.83
2023-04-03T16:42:54.409Z,13.62
2023-04-03T16:45:58.124Z,13.69
2023-04-03T16:49:03.301Z,13.42
2023-04-03T16:52:07.853Z,13.51
2023-04-03T16:55:11.663Z,13.31
2023-04-03T16:58:16.064Z,13.27
2023-04-03T17:01:21.367Z,13.33
2023-04-03T17:04:27.322Z,13.35
2023-04-03T17:07:31.055Z,13.49
2023-04-03T17:10:36.618Z,13.35
2023-04-03T17:13:40.691Z,13.30
2023-04-03T17:16:44.572Z,13.29
2023-04-03T17:19:50.287Z,13.10
2023-04-03T17:22:54.096Z,13.10
2023-04-03T17:25:58.037Z,13.21
2023-04-03T17:29:01.798Z,13.04
2023-04-03T17:32:05.821Z,12.92
2023-04-03T17:35:11.982Z,12.97
2023-04-03T17:38:15.911Z,12.91
2023-04-03T17:41:19.536Z,13.03
2023-04-03T17:44:23.953Z,12.88
2023-04-03T17:47:27.859Z,12.91
2023-04-03T17:50:33.315Z,12.78
2023-04-03T17:53:37.124Z,12.76
2023-04-03T17:56:43.808Z,12.86
2023-04-03T17:59:47.713Z,12.90
2023-04-03T18:02:54.534Z,12.87
2023-04-03T18:05:59.828Z,12.88
2023-04-03T18:09:07.521Z,12.67
2023-04-03T18:12:11.793Z,12.75
2023-04-03T18:15:15.761Z,12.72
2023-04-03T18:18:19.572Z,12.75
2023-04-03T18:21:24.783Z,12.81
2023-04-03T18:24:29.058Z,12.72
2023-04-03T18:27:32.919Z,12.68
2023-04-03T18:30:36.961Z,12.76
2023-04-03T18:33:40.730Z,12.71
2023-04-03T18:36:46.313Z,12.80
2023-04-03T18:39:50.150Z,12.88
2023-04-03T18:42:54.049Z,12.86
2023-04-03T18:45:58.049Z,12.70
2023-04-03T18:49:02.031Z,12.77
2023-04-03T18:52:07.269Z,12.58
2023-04-03T18:55:14.125Z,12.55
2023-04-03T18:58:17.907Z,12.53
2023-04-03T19:01:21.924Z,12.42
2023-04-03T19:04:26.207Z,12.30
2023-04-03T19:07:31.519Z,12.29
2023-04-03T19:10:35.170Z,12.15
2023-04-03T19:13:47.060Z,12.40
2023-04-03T19:17:04.388Z,12.37
2023-04-03T19:20:09.879Z,12.21
2023-04-03T19:23:15.189Z,11.96
2023-04-03T19:26:19.167Z,11.92
2023-04-03T19:29:23.233Z,11.92
2023-04-03T19:32:28.237Z,12.14
2023-04-03T19:35:32.060Z,12.30
2023-04-03T19:38:37.615Z,12.05
2023-04-03T19:41:45.302Z,12.10
2023-04-03T19:44:50.066Z,11.91
2023-04-03T19:47:54.018Z,12.04
2023-04-03T19:50:57.683Z,12.09
2023-04-03T19:54:02.792Z,11.75
2023-04-03T19:57:06.799Z,11.70
2023-04-03T20:00:11.722Z,11.68
2023-04-03T20:03:15.641Z,12.05
2023-04-03T20:06:19.314Z,11.85
2023-04-03T20:09:24.540Z,11.77
2023-04-03T20:12:28.276Z,11.72
2023-04-03T20:15:40.433Z,11.57
2023-04-03T20:18:44.237Z,11.57
2023-04-03T20:21:48.055Z,11.59
2023-04-03T20:24:53.294Z,11.55
2023-04-03T20:27:57.157Z,11.74
2023-04-03T20:31:02.643Z,11.64
2023-04-03T20:34:06.401Z,11.67
2023-04-03T20:37:10.727Z,11.57
2023-04-03T20:40:16.294Z,11.62
2023-04-03T20:43:21.913Z,11.42
2023-04-03T20:46:38.319Z,11.40
2023-04-03T20:49:53.846Z,11.31
2023-04-03T20:52:59.162Z,11.15
2023-04-03T20:56:04.306Z,11.28
2023-04-03T20:59:08.619Z,11.29
2023-04-03T21:02:12.873Z,11.04
2023-04-03T21:05:18.332Z,11.07
2023-04-03T21:08:59.690Z,10.98
2023-04-03T21:12:40.631Z,11.01
2023-04-03T21:15:55.098Z,11.48
2023-04-03T21:19:16.554Z,11.36
2023-04-03T21:22:22.164Z,11.59
2023-04-03T21:25:25.975Z,11.42
2023-04-03T21:28:29.673Z,11.27
2023-04-03T21:31:48.674Z,11.08
2023-04-03T21:34:53.769Z,11.09
2023-04-03T21:37:58.076Z,10.98
2023-04-03T21:41:01.802Z,10.96
2023-04-03T21:44:05.616Z,11.03
2023-04-03T21:47:09.339Z,10.93
2023-04-03T21:50:14.649Z,11.00
2023-04-03T21:53:19.733Z,11.25
2023-04-03T21:56:24.547Z,11.38
2023-04-03T21:59:28.346Z,11.18
2023-04-03T22:02:33.928Z,11.37
2023-04-03T22:05:39.083Z,11.23
2023-04-03T22:08:43.017Z,11.25
2023-04-03T22:11:46.942Z,11.45
2023-04-03T22:14:51.636Z,11.37
2023-04-03T22:17:55.418Z,11.26
2023-04-03T22:21:00.618Z,11.25
2023-04-03T22:24:04.692Z,11.11
2023-04-03T22:27:08.248Z,11.35
2023-04-03T22:30:13.045Z,11.45
2023-04-03T22:33:16.756Z,11.62
2023-04-03T22:36:21.976Z,11.60
2023-04-03T22:39:26.129Z,11.36
2023-04-03T22:42:30.058Z,11.53
2023-04-03T22:45:33.928Z,11.41
2023-04-03T22:48:38.855Z,11.55
2023-04-03T22:51:43.932Z,11.43
2023-04-03T22:54:47.828Z,11.70
2023-04-03T22:57:51.807Z,11.53
2023-04-03T23:00:56.083Z,11.42
2023-04-03T23:03:59.708Z,11.49
2023-04-03T23:07:05.399Z,11.61
2023-04-03T23:10:09.768Z,11.75
2023-04-03T23:13:13.370Z,11.62
2023-04-03T23:16:17.554Z,11.64
2023-04-03T23:19:21.158Z,11.88
2023-04-03T23:22:26.097Z,11.78
2023-04-03T23:25:29.530Z,11.82
2023-04-03T23:28:33.118Z,11.84
2023-04-03T23:31:36.786Z,11.69
2023-04-03T23:34:40.679Z,11.60
2023-04-03T23:37:45.616Z,11.66
2023-04-03T23:40:49.187Z,11.64
2023-04-03T23:43:53.073Z,11.67
2023-04-03T23:46:58.231Z,11.84
2023-04-03T23:50:01.669Z,11.99
2023-04-03T23:53:06.823Z,11.93
2023-04-03T23:56:13.377Z,11.85
2023-04-03T23:59:16.905Z,11.91
